createdAt,value
2018-11-02T00:03:31.549Z,7.40
2018-11-02T00:09:36.725Z,7.40
2018-11-02T00:15:41.700Z,7.40
2018-11-02T00:21:47.655Z,7.40
2018-11-02T00:27:52.465Z,7.40
2018-11-02T00:33:57.210Z,7.40
2018-11-02T00:40:02.369Z,7.40
2018-11-02T00:46:07.944Z,7.70
2018-11-02T00:52:13.222Z,8.00
2018-11-02T00:58:17.954Z,8.30
2018-11-02T01:04:22.624Z,8.50
2018-11-02T01:10:27.356Z,8.60
2018-11-02T01:16:32.866Z,8.80
2018-11-02T01:22:37.500Z,9.00
2018-11-02T01:28:42.200Z,9.10
2018-11-02T01:34:46.926Z,9.20
2018-11-02T01:40:51.652Z,9.30
2018-11-02T01:46:56.397Z,9.30
2018-11-02T01:53:01.606Z,9.40
2018-11-02T01:59:06.992Z,9.30
2018-11-02T02:05:11.750Z,9.30
2018-11-02T02:11:16.670Z,9.30
2018-11-02T02:17:21.735Z,9.20
2018-11-02T02:23:26.682Z,9.30
2018-11-02T02:29:31.385Z,9.30
2018-11-02T02:35:36.115Z,9.40
2018-11-02T02:41:41.178Z,9.30
2018-11-02T02:47:46.187Z,9.30
2018-11-02T02:53:51.253Z,9.30
2018-11-02T02:59:55.941Z,9.40
2018-11-02T03:06:00.587Z,9.40
2018-11-02T03:12:05.794Z,9.40
2018-11-02T03:18:10.576Z,9.40
2018-11-02T03:24:15.357Z,9.40
2018-11-02T03:30:20.716Z,9.40
2018-11-02T03:36:25.800Z,9.50
2018-11-02T03:42:30.527Z,9.50
2018-11-02T03:48:35.369Z,9.50
2018-11-02T03:54:40.086Z,9.50
2018-11-02T04:00:45.979Z,9.50
2018-11-02T04:06:50.697Z,9.50
2018-11-02T04:12:55.354Z,9.50
2018-11-02T04:19:00.427Z,9.50
2018-11-02T04:25:06.353Z,9.50
2018-11-02T04:31:11.216Z,9.50
2018-11-02T04:37:15.797Z,9.50
2018-11-02T04:43:20.919Z,9.60
2018-11-02T04:49:25.606Z,9.60
2018-11-02T04:55:30.654Z,9.70
2018-11-02T05:01:35.317Z,9.80
2018-11-02T05:07:40.699Z,9.80
2018-11-02T05:13:45.820Z,9.90
2018-11-02T05:19:50.560Z,9.90
2018-11-02T05:25:55.312Z,9.90
2018-11-02T05:32:00.094Z,9.90
2018-11-02T05:38:05.327Z,10.00
2018-11-02T05:44:10.068Z,10.10
2018-11-02T05:50:15.094Z,10.10
2018-11-02T05:56:19.912Z,10.10
2018-11-02T06:02:24.599Z,10.20
2018-11-02T06:08:30.048Z,10.20
2018-11-02T06:14:35.248Z,10.30
2018-11-02T06:20:40.034Z,10.20
2018-11-02T06:26:44.938Z,10.20
2018-11-02T06:32:49.792Z,10.20
2018-11-02T06:38:54.499Z,10.30
2018-11-02T06:44:59.256Z,10.30
2018-11-02T06:51:03.907Z,10.20
2018-11-02T06:57:08.877Z,10.00
2018-11-02T07:03:13.593Z,9.90
2018-11-02T07:09:18.649Z,9.80
2018-11-02T07:15:23.373Z,9.70
2018-11-02T07:21:28.098Z,9.70
2018-11-02T07:27:33.143Z,9.70
2018-11-02T07:33:37.885Z,9.50
2018-11-02T07:39:42.486Z,9.40
2018-11-02T07:45:47.251Z,9.30
2018-11-02T07:51:52.401Z,9.30
2018-11-02T07:57:57.155Z,9.30
2018-11-02T08:04:02.373Z,9.40
2018-11-02T08:10:07.097Z,9.60
2018-11-02T08:16:12.236Z,9.70
2018-11-02T08:22:16.936Z,9.90
2018-11-02T08:28:21.701Z,9.90
2018-11-02T08:34:26.372Z,10.00
2018-11-02T08:40:31.200Z,10.10
2018-11-02T08:46:35.968Z,10.20
2018-11-02T08:52:41.118Z,10.40
2018-11-02T08:58:46.140Z,10.50
2018-11-02T09:04:50.692Z,10.60
2018-11-02T09:10:55.378Z,10.90
2018-11-02T09:17:00.088Z,11.10
2018-11-02T09:23:05.107Z,11.30
2018-11-02T09:29:09.897Z,11.50
2018-11-02T09:35:15.506Z,11.60
2018-11-02T09:41:20.652Z,11.60
2018-11-02T09:47:25.396Z,11.60
2018-11-02T09:53:30.213Z,11.90
2018-11-02T09:59:34.934Z,11.90
2018-11-02T10:05:39.628Z,11.80
2018-11-02T10:11:44.499Z,11.90
2018-11-02T10:17:49.299Z,12.00
2018-11-02T10:23:54.546Z,12.10
2018-11-02T10:29:59.271Z,12.30
2018-11-02T10:36:06.272Z,12.40
2018-11-02T10:42:12.605Z,12.20
2018-11-02T10:48:17.593Z,12.10
2018-11-02T10:54:22.446Z,12.00
2018-11-02T11:00:32.480Z,11.70
2018-11-02T11:06:37.224Z,11.50
2018-11-02T11:12:42.416Z,11.50
2018-11-02T11:18:46.837Z,11.60
2018-11-02T11:24:51.567Z,11.70
2018-11-02T11:30:56.487Z,11.70
2018-11-02T11:37:01.175Z,11.70
2018-11-02T11:43:06.136Z,11.90
2018-11-02T11:49:11.555Z,12.10
2018-11-02T11:55:16.782Z,12.20
2018-11-02T12:01:21.534Z,12.40
2018-11-02T12:07:26.282Z,12.40
2018-11-02T12:13:30.989Z,12.60
2018-11-02T12:19:35.687Z,12.70
2018-11-02T12:25:40.440Z,12.80
2018-11-02T12:31:45.709Z,12.80
2018-11-02T12:37:50.379Z,13.30
2018-11-02T12:43:55.394Z,13.40
2018-11-02T12:50:00.262Z,13.40
2018-11-02T12:56:05.310Z,13.40
2018-11-02T13:02:10.713Z,13.40
2018-11-02T13:08:15.510Z,13.10
2018-11-02T13:14:20.400Z,13.00
2018-11-02T13:20:25.567Z,12.90
2018-11-02T13:26:30.830Z,13.00
2018-11-02T13:32:35.799Z,13.10
2018-11-02T13:38:40.621Z,13.20
2018-11-02T13:44:45.492Z,13.30
2018-11-02T13:50:50.205Z,13.20
2018-11-02T13:56:55.066Z,12.90
2018-11-02T14:02:59.857Z,12.80
2018-11-02T14:09:06.066Z,12.70
2018-11-02T14:15:12.599Z,12.60
2018-11-02T14:21:17.319Z,12.50
2018-11-02T14:27:22.060Z,12.40
2018-11-02T14:33:26.796Z,12.30
2018-11-02T14:39:33.173Z,12.20
2018-11-02T14:45:38.627Z,12.10
2018-11-02T14:51:44.329Z,12.10
2018-11-02T14:57:49.702Z,12.00
2018-11-02T15:03:55.089Z,12.00
2018-11-02T15:10:00.549Z,12.00
2018-11-02T15:16:05.899Z,11.90
2018-11-02T15:22:11.074Z,11.80
2018-11-02T15:28:16.163Z,11.80
2018-11-02T15:34:21.004Z,11.70
2018-11-02T15:40:27.299Z,11.50
2018-11-02T15:46:32.459Z,11.50
2018-11-02T15:52:37.974Z,11.30
2018-11-02T15:58:43.219Z,11.20
2018-11-02T16:04:48.966Z,10.90
2018-11-02T16:10:53.699Z,10.50
2018-11-02T16:16:59.061Z,10.30
2018-11-02T16:23:04.115Z,10.00
2018-11-02T16:29:08.909Z,9.70
2018-11-02T16:35:14.438Z,9.40
2018-11-02T16:41:19.206Z,9.10
2018-11-02T16:47:24.232Z,9.00
2018-11-02T16:53:28.894Z,9.10
2018-11-02T16:59:33.639Z,9.00
2018-11-02T17:05:38.342Z,8.90
2018-11-02T17:11:43.549Z,8.80
2018-11-02T17:17:48.139Z,8.70
2018-11-02T17:23:52.917Z,8.70
2018-11-02T17:29:57.977Z,8.70
2018-11-02T17:36:02.656Z,8.60
2018-11-02T17:42:07.454Z,8.50
2018-11-02T17:48:12.611Z,8.50
2018-11-02T17:54:17.419Z,8.40
2018-11-02T18:00:22.091Z,8.40
2018-11-02T18:06:27.067Z,8.50
2018-11-02T18:12:31.820Z,8.70
2018-11-02T18:18:37.635Z,8.80
2018-11-02T18:24:42.360Z,8.90
2018-11-02T18:30:47.114Z,8.90
2018-11-02T18:36:52.206Z,8.80
2018-11-02T18:42:56.911Z,8.80
2018-11-02T18:49:01.659Z,8.70
2018-11-02T18:55:07.420Z,8.40
2018-11-02T19:01:12.203Z,8.10
2018-11-02T19:07:17.009Z,7.90
2018-11-02T19:13:21.835Z,7.70
2018-11-02T19:19:26.617Z,7.70
2018-11-02T19:25:31.390Z,7.70
2018-11-02T19:31:36.430Z,7.80
2018-11-02T19:37:41.196Z,7.80
2018-11-02T19:43:46.510Z,7.80
2018-11-02T19:49:51.504Z,7.80
2018-11-02T19:55:56.369Z,7.80
2018-11-02T20:02:00.982Z,7.90
2018-11-02T20:08:06.122Z,8.10
2018-11-02T20:14:11.380Z,8.30
2018-11-02T20:20:16.990Z,8.40
2018-11-02T20:26:22.168Z,8.60
2018-11-02T20:32:27.437Z,8.60
2018-11-02T20:38:32.129Z,8.40
2018-11-02T20:44:37.379Z,8.40
2018-11-02T20:50:42.301Z,8.50
2018-11-02T20:56:47.557Z,8.50
2018-11-02T21:02:52.413Z,8.50
2018-11-02T21:08:57.193Z,8.70
2018-11-02T21:15:02.134Z,8.80
2018-11-02T21:21:07.580Z,8.80
2018-11-02T21:27:12.319Z,8.70
2018-11-02T21:33:17.832Z,8.60
2018-11-02T21:39:22.532Z,8.50
2018-11-02T21:45:27.704Z,8.50
2018-11-02T21:51:32.460Z,8.50
2018-11-02T21:57:37.558Z,8.50
2018-11-02T22:03:42.610Z,8.50
2018-11-02T22:09:47.385Z,8.50
2018-11-02T22:15:52.207Z,8.50
2018-11-02T22:21:56.982Z,8.50
2018-11-02T22:28:01.706Z,8.50
2018-11-02T22:34:06.742Z,8.50
2018-11-02T22:40:12.393Z,8.40
2018-11-02T22:46:17.135Z,8.30
2018-11-02T22:52:22.114Z,8.20
2018-11-02T22:58:26.934Z,8.10
2018-11-02T23:04:31.693Z,8.10
2018-11-02T23:10:36.847Z,8.00
2018-11-02T23:16:41.647Z,8.00
2018-11-02T23:22:46.374Z,7.80
2018-11-02T23:28:51.103Z,7.60
2018-11-02T23:34:55.817Z,7.60
2018-11-02T23:41:00.647Z,7.60
2018-11-02T23:47:05.770Z,7.60
2018-11-02T23:53:11.134Z,7.60
2018-11-02T23:59:16.135Z,7.60
